Time;durP1;ratioP1;P1;durP2;ratioP2;P2;SDS_P1;SDS_P2;PMS_P1;PMS_P2;Temp;Humidity;BMP_temperature;BMP_pressure;BME280_temperature;BME280_humidity;BME280_pressure;Samples;Min_cycle;Max_cycle;Signal;HPM_P1;HPM_P2
2022/09/28 00:01:23;;;;;;;7.10;4.90;;;;;;;-145.18;100.00;46666.25;6182459;23;20013;-83
2022/09/28 00:03:51;;;;;;;10.67;4.17;;;;;;;-145.18;100.00;46670.16;6183269;23;20249;-83
2022/09/28 00:06:19;;;;;;;8.70;4.10;;;;;;;-145.18;100.00;46668.22;6182787;23;20285;-83
2022/09/28 00:08:45;;;;;;;7.23;3.87;;;;;;;-145.18;100.00;46666.25;6183539;23;20231;-83
2022/09/28 00:11:14;;;;;;;8.63;3.50;;;;;;;-145.18;100.00;46668.22;6156306;23;20530;-83
2022/09/28 00:13:41;;;;;;;7.37;3.47;;;;;;;-145.18;100.00;46672.13;6183139;23;20005;-83
2022/09/28 00:16:12;;;;;;;9.63;3.17;;;;;;;-145.18;100.00;46666.25;6156518;23;20288;-83
2022/09/28 00:18:38;;;;;;;5.57;3.27;;;;;;;-145.18;100.00;46666.25;6180145;23;20223;-83
2022/09/28 00:21:12;;;;;;;6.43;3.03;;;;;;;-145.18;100.00;46660.41;6182886;23;20321;-82
2022/09/28 00:24:11;;;;;;;12.00;4.00;;;;;;;-145.18;100.00;46664.31;6156647;23;20458;-84
2022/09/28 00:26:25;;;;;;;5.72;2.92;;;;;;;-145.18;100.00;46666.25;6182350;23;20624;-84
2022/09/28 00:28:56;;;;;;;11.43;3.10;;;;;;;-145.18;100.00;46664.31;6156653;23;20009;-84
2022/09/28 00:31:23;;;;;;;6.60;2.90;;;;;;;-145.18;100.00;46668.22;6156540;23;20235;-84
2022/09/28 00:33:55;;;;;;;6.50;3.20;;;;;;;-145.18;100.00;46666.25;6183283;23;20318;-83
2022/09/28 00:36:22;;;;;;;12.10;3.17;;;;;;;-145.18;100.00;46666.25;6183183;23;20238;-83
2022/09/28 00:38:47;;;;;;;5.77;2.90;;;;;;;-145.18;100.00;46666.25;6182706;23;20230;-84
2022/09/28 00:41:14;;;;;;;7.20;2.80;;;;;;;-145.18;100.00;46662.34;6182957;23;20238;-83
2022/09/28 00:43:40;;;;;;;8.57;3.20;;;;;;;-145.18;100.00;46668.22;6183358;23;20020;-83
2022/09/28 00:46:17;;;;;;;4.30;2.90;;;;;;;-145.18;100.00;46670.16;6182713;23;20325;-83
2022/09/28 00:48:53;;;;;;;6.53;3.37;;;;;;;-145.18;100.00;46670.16;6182605;23;20005;-82
2022/09/28 00:51:19;;;;;;;;;;;;;;;-145.18;100.00;46670.16;6182781;23;20219;-82
2022/09/28 00:53:45;;;;;;;3.60;2.10;;;;;;;-145.18;100.00;46674.06;6183154;23;20330;-83
2022/09/28 00:56:17;;;;;;;7.77;2.33;;;;;;;-145.18;100.00;46668.22;6182636;23;20005;-83
2022/09/28 00:58:47;;;;;;;3.23;1.80;;;;;;;-145.18;100.00;46668.22;6183334;23;20025;-83
2022/09/28 01:01:13;;;;;;;7.77;1.70;;;;;;;-145.18;100.00;46668.22;6183051;23;20238;-83
2022/09/28 01:03:44;;;;;;;3.13;1.57;;;;;;;-145.18;100.00;46668.22;6151099;23;20264;-83
2022/09/28 01:06:13;;;;;;;7.00;2.60;;;;;;;-145.18;100.00;46662.34;6154445;23;20012;-82
2022/09/28 01:08:40;;;;;;;6.20;1.40;;;;;;;-145.18;100.00;46668.22;6155185;23;20238;-82
2022/09/28 01:11:05;;;;;;;4.03;1.23;;;;;;;-145.18;100.00;46670.16;6154974;23;20267;-82
2022/09/28 01:13:32;;;;;;;8.60;1.27;;;;;;;-145.18;100.00;46666.25;6155083;23;20231;-82
2022/09/28 01:16:27;;;;;;;3.13;1.10;;;;;;;-145.18;100.00;46668.22;6155037;23;20088;-82
2022/09/28 01:19:10;;;;;;;3.13;1.03;;;;;;;-145.18;100.00;46672.13;6154199;23;20569;-83
2022/09/28 01:21:51;;;;;;;3.43;1.27;;;;;;;-145.18;100.00;46664.31;6154918;23;20227;-83
2022/09/28 01:24:23;;;;;;;4.50;1.10;;;;;;;-145.18;100.00;46664.31;6155041;23;20696;-82
2022/09/28 01:27:14;;;;;;;4.30;0.90;;;;;;;-145.18;100.00;46666.25;6154700;23;20999;-82
2022/09/28 01:29:46;;;;;;;1.73;0.77;;;;;;;-145.18;100.00;46668.22;6151478;23;20251;-82
2022/09/28 01:32:27;;;;;;;6.27;1.27;;;;;;;-145.18;100.00;46666.25;6177963;23;20266;-83
2022/09/28 01:34:57;;;;;;;2.80;0.70;;;;;;;-145.18;100.00;46670.16;6155104;23;20224;-82
2022/09/28 01:37:31;;;;;;;4.00;0.80;;;;;;;-145.18;100.00;46664.31;6154346;23;20246;-82
2022/09/28 01:40:00;;;;;;;7.07;0.87;;;;;;;-145.18;100.00;46672.13;6154923;23;20250;-82
2022/09/28 01:42:30;;;;;;;2.10;0.60;;;;;;;-145.18;100.00;46670.16;6153727;23;20315;-82
2022/09/28 01:45:02;;;;;;;1.93;0.70;;;;;;;-145.18;100.00;46666.25;6155342;23;20228;-82
2022/09/28 01:47:32;;;;;;;2.33;0.50;;;;;;;-145.18;100.00;46666.25;6154353;23;20334;-84
2022/09/28 01:50:06;;;;;;;1.97;0.50;;;;;;;-145.18;100.00;46674.06;6152897;23;20251;-83
2022/09/28 01:52:43;;;;;;;3.23;0.50;;;;;;;-145.18;100.00;46672.13;6153823;23;20285;-84
2022/09/28 01:55:18;;;;;;;2.93;0.67;;;;;;;-145.18;100.00;46670.16;6154267;23;20227;-85
2022/09/28 01:57:50;;;;;;;5.83;0.80;;;;;;;-145.18;100.00;46670.16;6154102;23;20263;-86
2022/09/28 02:03:07;;;;;;;3.77;1.00;;;;;;;-145.18;100.00;46668.22;6186370;22;20713;-90
2022/09/28 02:05:36;;;;;;;4.60;1.00;;;;;;;-145.18;100.00;46674.06;6216106;23;20253;-90
2022/09/28 02:08:11;;;;;;;2.70;0.80;;;;;;;-145.18;100.00;46670.16;6244447;23;20233;-89
2022/09/28 02:10:42;;;;;;;4.53;0.65;;;;;;;-145.18;100.00;46672.13;6217798;23;20718;-89
2022/09/28 02:13:14;;;;;;;3.30;0.70;;;;;;;-145.18;100.00;46672.13;6243952;23;20071;-89
2022/09/28 02:16:06;;;;;;;4.27;1.20;;;;;;;-145.18;100.00;46674.06;6243980;23;20240;-88
2022/09/28 02:18:32;;;;;;;3.97;0.60;;;;;;;-145.18;100.00;46672.13;6240258;23;20678;-87
2022/09/28 02:21:10;;;;;;;3.73;0.70;;;;;;;-145.18;100.00;46666.25;6217202;23;20229;-85
2022/09/28 02:23:40;;;;;;;4.80;0.80;;;;;;;-145.18;100.00;46666.25;6243605;23;20004;-86
2022/09/28 02:26:09;;;;;;;2.63;0.70;;;;;;;-145.18;100.00;46668.22;6216516;23;20237;-88
2022/09/28 02:28:35;;;;;;;4.57;0.70;;;;;;;-145.18;100.00;46668.22;6243582;23;20681;-89
2022/09/28 02:31:00;;;;;;;2.63;0.80;;;;;;;-145.18;100.00;46668.22;6217568;23;20229;-90
2022/09/28 02:33:32;;;;;;;3.23;0.63;;;;;;;-145.18;100.00;46670.16;6217035;23;20008;-88
2022/09/28 02:35:59;;;;;;;6.03;0.80;;;;;;;-145.18;100.00;46666.25;6217874;23;20008;-87
2022/09/28 02:38:25;;;;;;;2.17;0.63;;;;;;;-145.18;100.00;46668.22;6243723;23;20218;-87
2022/09/28 02:41:19;;;;;;;3.37;1.13;;;;;;;-145.18;100.00;46668.22;6217305;23;20256;-87
2022/09/28 02:44:00;;;;;;;3.10;0.73;;;;;;;-145.18;100.00;46666.25;6220443;23;20564;-89
2022/09/28 02:46:38;;;;;;;4.77;0.70;;;;;;;-145.18;100.00;46668.22;6244058;23;20249;-89
2022/09/28 02:49:20;;;;;;;1.03;0.50;;;;;;;-145.18;100.00;46666.25;6243433;23;20268;-90
2022/09/28 02:52:06;;;;;;;0.83;0.47;;;;;;;-145.18;100.00;46662.34;6244420;23;20216;-88
2022/09/28 02:54:50;;;;;;;1.25;0.60;;;;;;;-145.18;100.00;46666.25;6243465;23;20745;-88
2022/09/28 02:57:50;;;;;;;1.50;1.00;;;;;;;-145.18;100.00;46666.25;6242814;23;20004;-89
2022/09/28 03:00:21;;;;;;;5.67;1.47;;;;;;;-145.18;100.00;46664.31;6232477;23;20789;-89
2022/09/28 03:03:18;;;;;;;3.30;0.70;;;;;;;-145.18;100.00;46664.31;6235611;23;20270;-88
2022/09/28 03:05:56;;;;;;;3.25;0.60;;;;;;;-145.18;100.00;46672.13;6213786;23;20286;-89
2022/09/28 03:08:33;;;;;;;4.40;0.87;;;;;;;-145.18;100.00;46668.22;6212903;23;19996;-90
2022/09/28 03:11:09;;;;;;;2.03;0.60;;;;;;;-145.18;100.00;46666.25;6186990;23;20679;-89
2022/09/28 03:13:35;;;;;;;3.92;0.90;;;;;;;-145.18;100.00;46660.41;6213182;23;20676;-90
2022/09/28 03:16:12;;;;;;;3.67;0.80;;;;;;;-145.18;100.00;46668.22;6187190;23;20071;-91
2022/09/28 03:18:37;;;;;;;2.97;0.97;;;;;;;-145.18;100.00;46660.41;6213537;23;20277;-91
2022/09/28 03:21:04;;;;;;;3.20;0.77;;;;;;;-145.18;100.00;46660.41;6213291;23;20560;-89
2022/09/28 03:23:29;;;;;;;5.47;0.83;;;;;;;-145.18;100.00;46666.25;6213033;23;20104;-90
2022/09/28 03:25:55;;;;;;;2.40;0.73;;;;;;;-145.18;100.00;46660.41;6186747;23;20274;-90
2022/09/28 03:28:22;;;;;;;6.40;0.90;;;;;;;-145.18;100.00;46658.44;6212816;23;20009;-91
2022/09/28 03:30:47;;;;;;;5.90;0.90;;;;;;;-145.18;100.00;46660.41;6186841;23;20086;-90
2022/09/28 03:33:13;;;;;;;6.17;0.83;;;;;;;-145.18;100.00;46664.31;6212548;23;20611;-90
2022/09/28 03:35:38;;;;;;;7.00;0.80;;;;;;;-145.18;100.00;46660.41;6213756;23;20055;-90
2022/09/28 03:38:03;;;;;;;6.93;0.80;;;;;;;-145.18;100.00;46662.34;6213055;23;20014;-90
2022/09/28 03:40:29;;;;;;;2.07;0.93;;;;;;;-145.18;100.00;46662.34;6213176;23;20005;-90
2022/09/28 03:42:54;;;;;;;6.13;0.90;;;;;;;-145.18;100.00;46658.44;6213114;23;20013;-90
2022/09/28 03:45:20;;;;;;;4.80;0.87;;;;;;;-145.18;100.00;46662.34;6212911;23;20012;-87
2022/09/28 03:47:45;;;;;;;6.63;0.83;;;;;;;-145.18;100.00;46662.34;6213027;23;20032;-87
2022/09/28 03:50:11;;;;;;;2.10;0.60;;;;;;;-145.18;100.00;46666.25;6213216;23;20016;-86
2022/09/28 03:52:36;;;;;;;6.03;0.90;;;;;;;-145.18;100.00;46662.34;6212561;23;20004;-84
2022/09/28 03:55:02;;;;;;;2.87;0.60;;;;;;;-145.18;100.00;46660.41;6212734;23;20007;-87
2022/09/28 03:57:27;;;;;;;2.97;0.70;;;;;;;-145.18;100.00;46664.31;6186130;23;20104;-89
2022/09/28 03:59:52;;;;;;;6.33;0.70;;;;;;;-145.18;100.00;46662.34;6213333;23;20012;-89
2022/09/28 04:02:18;;;;;;;9.17;0.90;;;;;;;-145.18;100.00;46658.44;6212168;23;20008;-89
2022/09/28 04:04:43;;;;;;;4.10;1.07;;;;;;;-145.18;100.00;46666.25;6183645;23;20058;-87
2022/09/28 04:07:08;;;;;;;4.73;0.67;;;;;;;-145.18;100.00;46662.34;6212028;23;20071;-85
2022/09/28 04:09:34;;;;;;;6.27;0.80;;;;;;;-145.18;100.00;46656.50;6212712;23;20004;-86
2022/09/28 04:11:59;;;;;;;8.00;1.20;;;;;;;-145.18;100.00;46656.50;6212718;23;20088;-86
2022/09/28 04:14:24;;;;;;;7.80;0.80;;;;;;;-145.18;100.00;46658.44;6212552;23;20337;-87
2022/09/28 04:16:53;;;;;;;2.80;0.70;;;;;;;-145.18;100.00;46660.41;6212598;23;20004;-86
2022/09/28 04:19:19;;;;;;;6.57;1.00;;;;;;;-145.18;100.00;46664.31;6212181;23;20437;-85
2022/09/28 04:21:45;;;;;;;2.70;0.90;;;;;;;-145.18;100.00;46662.34;6212784;23;20230;-85
2022/09/28 04:24:10;;;;;;;5.90;0.80;;;;;;;-145.18;100.00;46662.34;6212421;23;20242;-84
2022/09/28 04:26:36;;;;;;;4.30;1.00;;;;;;;-145.18;100.00;46662.34;6212654;23;20012;-84
2022/09/28 04:29:17;;;;;;;3.60;0.97;;;;;;;-145.18;100.00;46664.31;6212206;23;20031;-84
2022/09/28 04:31:48;;;;;;;3.73;0.60;;;;;;;-145.18;100.00;46660.41;6213121;23;20398;-84
2022/09/28 04:34:19;;;;;;;3.13;0.93;;;;;;;-145.18;100.00;46660.41;6212107;23;20249;-83
2022/09/28 04:36:44;;;;;;;6.27;1.00;;;;;;;-145.18;100.00;46664.31;6212678;23;20806;-83
2022/09/28 04:39:15;;;;;;;4.40;0.73;;;;;;;-145.18;100.00;46662.34;6210335;23;20234;-83
2022/09/28 04:41:41;;;;;;;4.47;0.80;;;;;;;-145.18;100.00;46660.41;6214122;23;20011;-83
2022/09/28 04:44:07;;;;;;;3.83;0.90;;;;;;;-145.18;100.00;46662.34;6213467;23;20309;-83
2022/09/28 04:46:33;;;;;;;3.77;1.20;;;;;;;-145.18;100.00;46664.31;6187256;23;20016;-83
2022/09/28 04:48:59;;;;;;;5.70;0.93;;;;;;;-145.18;100.00;46662.34;6213814;23;20230;-83
2022/09/28 04:51:24;;;;;;;3.90;0.90;;;;;;;-145.18;100.00;46658.44;6187385;23;20008;-83
2022/09/28 04:53:49;;;;;;;4.23;1.10;;;;;;;-145.18;100.00;46658.44;6214402;23;20441;-83
2022/09/28 04:56:16;;;;;;;5.17;0.80;;;;;;;-145.18;100.00;46656.50;6213903;23;20016;-83
2022/09/28 04:58:43;;;;;;;6.40;1.10;;;;;;;-145.18;100.00;46658.44;6212020;23;20015;-83
2022/09/28 05:01:12;;;;;;;7.70;2.33;;;;;;;-145.18;100.00;46662.34;6213929;23;20242;-83
2022/09/28 05:03:38;;;;;;;4.97;1.20;;;;;;;-145.18;100.00;46666.25;6213945;23;20250;-83
2022/09/28 05:06:05;;;;;;;2.97;0.77;;;;;;;-145.18;100.00;46666.25;6214104;23;20341;-83
2022/09/28 05:08:30;;;;;;;4.20;1.07;;;;;;;-145.18;100.00;46658.44;6213676;23;20020;-82
2022/09/28 05:11:01;;;;;;;2.10;1.00;;;;;;;-145.18;100.00;46658.44;6214293;23;20556;-83
2022/09/28 05:13:27;;;;;;;10.73;0.90;;;;;;;-145.18;100.00;46658.44;6214405;23;20000;-82
2022/09/28 05:15:54;;;;;;;5.37;0.70;;;;;;;-145.18;100.00;46662.34;6214796;23;20234;-85
2022/09/28 05:18:20;;;;;;;5.03;0.60;;;;;;;-145.18;100.00;46658.44;6213253;23;20301;-82
2022/09/28 05:20:46;;;;;;;4.53;0.70;;;;;;;-145.18;100.00;46656.50;6214563;23;20705;-82
2022/09/28 05:23:14;;;;;;;3.00;0.60;;;;;;;-145.18;100.00;46660.41;6213527;23;20262;-82
2022/09/28 05:25:40;;;;;;;2.60;0.60;;;;;;;-145.18;100.00;46660.41;6212632;23;20012;-82
2022/09/28 05:28:06;;;;;;;9.50;1.63;;;;;;;-145.18;100.00;46656.50;6211636;23;20343;-82
2022/09/28 05:30:32;;;;;;;2.50;0.70;;;;;;;-145.18;100.00;46660.41;6187670;23;20009;-83
2022/09/28 05:32:58;;;;;;;2.03;0.93;;;;;;;-145.18;100.00;46662.34;6212751;23;20009;-82
2022/09/28 05:35:23;;;;;;;3.30;0.57;;;;;;;-145.18;100.00;46662.34;6213870;23;20533;-82
2022/09/28 05:37:48;;;;;;;6.40;0.53;;;;;;;-145.18;100.00;46660.41;6212793;23;20537;-82
2022/09/28 05:40:14;;;;;;;2.80;0.70;;;;;;;-145.18;100.00;46660.41;6213957;23;20012;-82
2022/09/28 05:42:41;;;;;;;3.53;0.60;;;;;;;-145.18;100.00;46662.34;6187523;23;20004;-82
2022/09/28 05:45:07;;;;;;;4.13;0.70;;;;;;;-145.18;100.00;46662.34;6214230;23;20533;-82
2022/09/28 05:47:38;;;;;;;6.63;0.60;;;;;;;-145.18;100.00;46656.50;6213957;23;20261;-82
2022/09/28 05:50:04;;;;;;;4.17;0.60;;;;;;;-145.18;100.00;46660.41;6213581;23;20230;-82
2022/09/28 05:52:30;;;;;;;2.70;0.50;;;;;;;-145.18;100.00;46654.53;6209910;23;20265;-82
2022/09/28 05:54:55;;;;;;;1.90;0.60;;;;;;;-145.18;100.00;46658.44;6213440;23;20235;-82
2022/09/28 05:57:21;;;;;;;4.50;0.80;;;;;;;-145.18;100.00;46660.41;6213530;23;20004;-82
2022/09/28 05:59:46;;;;;;;3.30;0.80;;;;;;;-145.18;100.00;46660.41;6213160;23;20012;-82
2022/09/28 06:02:11;;;;;;;4.73;1.23;;;;;;;-145.18;100.00;46662.34;6213098;23;20100;-82
2022/09/28 06:04:37;;;;;;;6.37;0.90;;;;;;;-145.18;100.00;46656.50;6212730;23;20036;-82
2022/09/28 06:07:02;;;;;;;3.70;0.90;;;;;;;-145.18;100.00;46660.41;6213323;23;20009;-81
2022/09/28 06:09:29;;;;;;;1.50;0.93;;;;;;;-145.18;100.00;46658.44;6161845;23;20013;-82
2022/09/28 06:11:54;;;;;;;5.33;1.00;;;;;;;-145.18;100.00;46662.34;6211981;23;20009;-79
2022/09/28 06:14:19;;;;;;;2.70;0.53;;;;;;;-145.18;100.00;46654.53;6212747;23;20567;-81
2022/09/28 06:16:45;;;;;;;5.53;0.83;;;;;;;-145.18;100.00;46656.50;6213290;23;20083;-82
2022/09/28 06:19:11;;;;;;;1.20;0.53;;;;;;;-145.18;100.00;46660.41;6211055;23;20040;-82
2022/09/28 06:21:37;;;;;;;0.90;0.50;;;;;;;-145.18;100.00;46654.53;6214002;23;20008;-81
2022/09/28 06:24:03;;;;;;;3.50;0.87;;;;;;;-145.18;100.00;46654.53;6212984;23;20005;-82
2022/09/28 06:26:29;;;;;;;4.40;0.60;;;;;;;-145.18;100.00;46660.41;6213129;23;20797;-81
2022/09/28 06:28:54;;;;;;;5.03;0.97;;;;;;;-145.18;100.00;46656.50;6213152;23;20234;-81
2022/09/28 06:31:22;;;;;;;2.30;0.60;;;;;;;-145.18;100.00;46658.44;6213120;23;20013;-81
2022/09/28 06:33:49;;;;;;;3.90;0.80;;;;;;;-145.18;100.00;46654.53;6213318;23;20009;-81
2022/09/28 06:36:15;;;;;;;2.13;0.50;;;;;;;-145.18;100.00;46660.41;6212727;23;20238;-81
2022/09/28 06:38:41;;;;;;;3.00;0.67;;;;;;;-145.18;100.00;46654.53;6212970;23;20245;-81
2022/09/28 06:41:06;;;;;;;4.43;0.47;;;;;;;-145.18;100.00;46656.50;6213038;23;20234;-81
2022/09/28 06:43:33;;;;;;;5.57;0.70;;;;;;;-145.18;100.00;46652.59;6212863;23;20005;-81
2022/09/28 06:45:59;;;;;;;3.00;0.60;;;;;;;-145.18;100.00;46658.44;6212704;23;20008;-81
2022/09/28 06:48:25;;;;;;;3.93;1.10;;;;;;;-145.18;100.00;46660.41;6212332;23;20250;-81
2022/09/28 06:50:50;;;;;;;3.57;0.70;;;;;;;-145.18;100.00;46664.31;6213532;23;20277;-81
2022/09/28 06:53:16;;;;;;;1.60;0.30;;;;;;;-145.18;100.00;46670.16;6212431;23;20088;-81
2022/09/28 06:55:44;;;;;;;4.10;0.70;;;;;;;-145.18;100.00;46664.31;6210689;23;20513;-80
2022/09/28 06:58:13;;;;;;;4.33;0.50;;;;;;;-145.18;100.00;46662.34;6212169;23;20495;-79
2022/09/28 07:00:39;;;;;;;4.10;0.77;;;;;;;-145.18;100.00;46664.31;6213209;23;20576;-81
2022/09/28 07:03:07;;;;;;;3.07;0.50;;;;;;;-145.18;100.00;46662.34;6211429;23;20784;-79
2022/09/28 07:05:35;;;;;;;1.80;0.47;;;;;;;-145.18;100.00;46662.34;6212933;23;20230;-79
2022/09/28 07:08:02;;;;;;;6.30;0.77;;;;;;;-145.18;100.00;46664.31;6185839;23;20266;-79
2022/09/28 07:10:29;;;;;;;1.63;0.60;;;;;;;-145.18;100.00;46664.31;6186200;23;20784;-79
2022/09/28 07:12:56;;;;;;;5.10;0.57;;;;;;;-145.18;100.00;46666.25;6212754;23;20401;-80
2022/09/28 07:15:23;;;;;;;3.53;0.60;;;;;;;-145.18;100.00;46670.16;6212865;23;20280;-79
2022/09/28 07:17:49;;;;;;;3.03;0.40;;;;;;;-145.18;100.00;46664.31;6211670;23;20564;-79
2022/09/28 07:20:15;;;;;;;7.70;1.10;;;;;;;-145.18;100.00;46674.06;6212497;23;20241;-79
2022/09/28 07:22:41;;;;;;;4.77;0.90;;;;;;;-145.18;100.00;46668.22;6213270;23;20088;-79
2022/09/28 07:25:08;;;;;;;3.80;1.27;;;;;;;-145.18;100.00;46664.31;6212207;23;20265;-79
2022/09/28 07:27:35;;;;;;;5.07;0.50;;;;;;;-145.18;100.00;46670.16;6213084;23;20021;-79
2022/09/28 07:30:01;;;;;;;4.33;0.60;;;;;;;-145.18;100.00;46668.22;6186031;23;20241;-79
2022/09/28 07:32:27;;;;;;;3.40;0.70;;;;;;;-145.18;100.00;46668.22;6212100;23;20226;-79
2022/09/28 07:34:53;;;;;;;7.43;0.97;;;;;;;-145.18;100.00;46670.16;6212426;23;20422;-80
2022/09/28 07:37:18;;;;;;;5.90;0.57;;;;;;;-145.18;100.00;46676.03;6212375;23;20070;-79
2022/09/28 07:42:29;;;;;;;6.77;0.77;;;;;;;-145.18;100.00;46677.97;6212315;23;20016;-79
2022/09/28 07:44:57;;;;;;;5.60;1.03;;;;;;;-145.18;100.00;46672.13;6185827;23;20745;-79
2022/09/28 07:47:25;;;;;;;3.07;0.60;;;;;;;-145.18;100.00;46677.97;6212402;23;20040;-79
2022/09/28 07:49:53;;;;;;;2.90;0.60;;;;;;;-145.18;100.00;46672.13;6212302;23;20255;-79
2022/09/28 07:52:20;;;;;;;4.80;0.57;;;;;;;-145.18;100.00;46676.03;6212455;23;20222;-79
2022/09/28 07:54:45;;;;;;;6.03;0.60;;;;;;;-145.18;100.00;46674.06;6212119;23;20683;-79
2022/09/28 07:57:11;;;;;;;1.97;0.50;;;;;;;-145.18;100.00;46679.94;6209833;23;20054;-79
2022/09/28 07:59:36;;;;;;;8.07;0.70;;;;;;;-145.18;100.00;46681.88;6184859;23;20019;-79
2022/09/28 08:02:02;;;;;;;4.63;0.80;;;;;;;-145.18;100.00;46679.94;6210650;23;20047;-79
2022/09/28 08:04:28;;;;;;;2.97;0.93;;;;;;;-145.18;100.00;46677.97;6210259;23;20012;-79
2022/09/28 08:06:54;;;;;;;3.07;0.60;;;;;;;-145.18;100.00;46681.88;6185024;23;20098;-79
2022/09/28 08:09:19;;;;;;;0.80;0.40;;;;;;;-145.18;100.00;46679.94;6211514;23;20373;-79
2022/09/28 08:11:44;;;;;;;5.13;0.50;;;;;;;-145.18;100.00;46685.78;6212145;23;20009;-79
2022/09/28 08:14:10;;;;;;;4.97;0.50;;;;;;;-145.18;100.00;46683.84;6211667;23;20032;-79
2022/09/28 08:16:35;;;;;;;2.93;0.70;;;;;;;-145.18;100.00;46687.75;6210663;23;20023;-79
2022/09/28 08:19:01;;;;;;;1.10;0.40;;;;;;;-145.18;100.00;46689.69;6212196;23;20468;-79
2022/09/28 08:21:44;;;;;;;3.53;0.50;;;;;;;-145.18;100.00;46687.75;6210953;23;20055;-79
2022/09/28 08:24:14;;;;;;;1.80;0.60;;;;;;;-145.18;100.00;46693.59;6185172;23;20026;-79
2022/09/28 08:26:40;;;;;;;5.97;0.60;;;;;;;-145.18;100.00;46691.66;6212479;23;20019;-79
2022/09/28 08:29:05;;;;;;;2.33;0.47;;;;;;;-145.18;100.00;46689.69;6212421;23;20001;-79
2022/09/28 08:31:31;;;;;;;5.83;0.60;;;;;;;-145.18;100.00;46693.59;6212698;23;20016;-79
2022/09/28 08:33:56;;;;;;;4.60;0.80;;;;;;;-145.18;100.00;46695.56;6210913;23;20012;-79
2022/09/28 08:36:22;;;;;;;1.63;0.60;;;;;;;-145.18;100.00;46695.56;6212448;23;20005;-79
2022/09/28 08:38:48;;;;;;;2.50;0.77;;;;;;;-145.18;100.00;46699.47;6212317;23;20008;-79
2022/09/28 08:41:26;;;;;;;1.17;0.40;;;;;;;-145.18;100.00;46697.50;6212185;23;20023;-79
2022/09/28 08:44:22;;;;;;;3.57;0.70;;;;;;;-145.18;100.00;46697.50;6212607;23;20075;-79
2022/09/28 08:46:52;;;;;;;5.28;0.65;;;;;;;-145.18;100.00;46693.59;6213083;23;20019;-79
2022/09/28 08:49:25;;;;;;;4.03;0.90;;;;;;;-145.18;100.00;46699.47;6211969;23;20028;-79
2022/09/28 08:52:01;;;;;;;2.10;0.57;;;;;;;-145.18;100.00;46701.41;6212846;23;20031;-79
2022/09/28 08:54:44;;;;;;;2.80;0.37;;;;;;;-145.18;100.00;46699.47;6212284;23;20032;-79
2022/09/28 08:57:15;;;;;;;2.53;0.50;;;;;;;-145.18;100.00;46691.66;6212231;23;20080;-79
2022/09/28 08:59:46;;;;;;;5.30;0.60;;;;;;;-145.18;100.00;46691.66;6212531;23;20007;-79
2022/09/28 09:02:24;;;;;;;0.80;0.40;;;;;;;-145.18;100.00;46683.84;6211692;23;20543;-79
2022/09/28 09:04:51;;;;;;;2.07;0.60;;;;;;;-145.18;100.00;46672.13;6212079;23;20015;-79
2022/09/28 09:07:22;;;;;;;2.33;0.43;;;;;;;-145.18;100.00;46660.41;6211786;23;20016;-79
2022/09/28 09:10:02;;;;;;;1.47;0.50;;;;;;;-145.18;100.00;46654.53;6212460;23;20028;-79
2022/09/28 09:12:40;;;;;;;0.53;0.33;;;;;;;-145.18;100.00;46625.22;6211912;23;20004;-79
2022/09/28 09:15:32;;;;;;;0.93;0.40;;;;;;;-145.18;100.00;46625.22;6212139;23;20426;-79
2022/09/28 09:18:29;;;;;;;0.63;0.30;;;;;;;-145.18;100.00;46601.78;6185979;23;20005;-79
2022/09/28 09:20:58;;;;;;;;;;;;;;;-145.18;100.00;46584.22;6187041;23;20078;-79
2022/09/28 09:23:34;;;;;;;1.80;0.37;;;;;;;-145.18;100.00;46580.31;6185464;23;19912;-79
2022/09/28 09:26:08;;;;;;;2.37;0.43;;;;;;;-145.18;100.00;46586.16;6213232;23;20004;-79
2022/09/28 09:28:52;;;;;;;1.00;0.30;;;;;;;-145.18;100.00;46592.03;6213901;23;20354;-79
2022/09/28 09:31:37;;;;;;;3.77;0.47;;;;;;;-145.18;100.00;46623.28;6214110;23;20000;-80
2022/09/28 09:34:14;;;;;;;2.07;0.50;;;;;;;-145.18;100.00;46615.47;6210787;23;20004;-80
2022/09/28 09:36:54;;;;;;;1.07;0.40;;;;;;;-145.18;100.00;46601.78;6213990;23;20084;-80
2022/09/28 09:39:40;;;;;;;3.43;0.70;;;;;;;-145.18;100.00;46586.16;6214965;23;20004;-80
2022/09/28 09:42:28;;;;;;;0.82;0.40;;;;;;;-145.18;100.00;46582.25;6187828;23;20001;-81
2022/09/28 09:45:24;;;;;;;1.87;0.43;;;;;;;-145.18;100.00;46570.53;6214627;23;20009;-81
2022/09/28 09:47:59;;;;;;;2.00;0.50;;;;;;;-145.18;100.00;46578.34;6215597;23;20346;-80
2022/09/28 09:50:38;;;;;;;3.03;0.70;;;;;;;-145.18;100.00;46584.22;6188824;23;20071;-80
2022/09/28 09:53:04;;;;;;;2.67;0.40;;;;;;;-145.18;100.00;46578.34;6215103;23;20004;-81
2022/09/28 09:55:45;;;;;;;4.73;1.17;;;;;;;-145.18;100.00;46584.22;6214475;23;20027;-81
2022/09/28 09:58:22;;;;;;;2.97;0.50;;;;;;;-145.18;100.00;46593.97;6215882;23;20005;-81
2022/09/28 10:00:51;;;;;;;3.40;0.40;;;;;;;-145.18;100.00;46590.06;6215155;23;20428;-81
2022/09/28 10:03:23;;;;;;;2.70;0.50;;;;;;;-145.18;100.00;46607.66;6213903;23;20060;-80
2022/09/28 10:05:55;;;;;;;2.63;0.50;;;;;;;-145.18;100.00;46599.84;6214952;23;20007;-80
2022/09/28 10:08:22;;;;;;;3.33;0.70;;;;;;;-145.18;100.00;46599.84;6215041;23;20007;-80
2022/09/28 10:10:53;;;;;;;1.40;0.50;;;;;;;-145.18;100.00;46597.88;6214422;23;20055;-81
2022/09/28 10:13:18;;;;;;;2.23;0.43;;;;;;;-145.18;100.00;46611.56;6215292;23;20019;-81
2022/09/28 10:15:46;;;;;;;3.20;0.50;;;;;;;-145.18;100.00;46601.78;6214598;23;20040;-81
2022/09/28 10:18:14;;;;;;;2.37;0.60;;;;;;;-145.18;100.00;46603.75;6216299;23;20005;-82
2022/09/28 10:20:43;;;;;;;3.17;0.70;;;;;;;-145.18;100.00;46617.41;6213510;23;20005;-82
2022/09/28 10:23:24;;;;;;;2.80;0.40;;;;;;;-145.18;100.00;46611.56;6213553;23;20028;-81
2022/09/28 10:26:00;;;;;;;2.93;0.43;;;;;;;-145.18;100.00;46601.78;6187016;23;20037;-81
2022/09/28 10:28:38;;;;;;;0.90;0.40;;;;;;;-145.18;100.00;46582.25;6213333;23;20377;-82
2022/09/28 10:31:40;;;;;;;3.70;1.13;;;;;;;-145.18;100.00;46586.16;6214292;23;20000;-82
2022/09/28 10:34:07;;;;;;;2.80;0.63;;;;;;;-145.18;100.00;46582.25;6207677;23;20070;-82
2022/09/28 10:36:44;;;;;;;2.93;0.50;;;;;;;-145.18;100.00;46597.88;6213364;23;20367;-83
2022/09/28 10:39:44;;;;;;;2.00;0.50;;;;;;;-145.18;100.00;46615.47;6212906;23;20012;-83
2022/09/28 10:42:16;;;;;;;6.43;0.83;;;;;;;-145.18;100.00;46615.47;6213026;23;20062;-84
2022/09/28 10:44:50;;;;;;;3.77;0.50;;;;;;;-145.18;100.00;46642.81;6213451;23;20024;-83
2022/09/28 10:47:18;;;;;;;1.63;0.40;;;;;;;-145.18;100.00;46635.00;6213175;23;20107;-83
2022/09/28 10:49:47;;;;;;;2.00;0.67;;;;;;;-145.18;100.00;46636.94;6213503;23;20457;-83
2022/09/28 10:52:32;;;;;;;2.83;1.80;;;;;;;-145.18;100.00;46629.13;6213573;23;20032;-84
2022/09/28 10:54:58;;;;;;;3.80;0.60;;;;;;;-145.18;100.00;46621.31;6213296;23;20012;-83
2022/09/28 10:57:27;;;;;;;1.53;0.53;;;;;;;-145.18;100.00;46611.56;6213091;23;20311;-85
2022/09/28 10:59:53;;;;;;;3.37;0.67;;;;;;;-145.18;100.00;46599.84;6213469;23;20000;-85
2022/09/28 11:02:25;;;;;;;2.53;0.77;;;;;;;-145.18;100.00;46613.50;6212994;23;20043;-86
2022/09/28 11:05:00;;;;;;;2.70;0.50;;;;;;;-145.18;100.00;46629.13;6213991;23;20004;-85
2022/09/28 11:07:31;;;;;;;2.90;0.70;;;;;;;-145.18;100.00;46631.09;6213321;23;20060;-86
2022/09/28 11:09:59;;;;;;;2.13;0.57;;;;;;;-145.18;100.00;46640.88;6213902;23;20005;-85
2022/09/28 11:12:38;;;;;;;2.73;0.47;;;;;;;-145.18;100.00;46648.69;6213297;23;20433;-87
2022/09/28 11:15:06;;;;;;;2.07;0.40;;;;;;;-145.18;100.00;46670.16;6212994;23;20004;-86
2022/09/28 11:17:37;;;;;;;1.10;0.43;;;;;;;-145.18;100.00;46683.84;6213736;23;20005;-86
2022/09/28 11:20:24;;;;;;;1.37;0.40;;;;;;;-145.18;100.00;46670.16;6212651;23;20000;-86
2022/09/28 11:22:51;;;;;;;2.63;0.70;;;;;;;-145.18;100.00;46679.94;6214255;23;20008;-87
2022/09/28 11:25:16;;;;;;;1.20;0.50;;;;;;;-145.18;100.00;46738.53;6213594;23;20052;-87
2022/09/28 11:27:51;;;;;;;1.73;0.50;;;;;;;-145.18;100.00;46679.94;6213316;23;20012;-87
2022/09/28 11:30:22;;;;;;;2.57;0.50;;;;;;;-145.18;100.00;46699.47;6212814;23;20366;-87